»·PEaware :: N446SP KCMA-KSNA

N446SP :: KCMA-KSNA

FLIGHT INFORMATION

Flight Status: Arrived
Operator: Privately registered:
United States
More flights under this callsign
Pilot: Peter K. (33822)
Aircraft: CESSNA 172 SKYHAWK
(C172)
More flights by this aircraft type
Origin: KCMA Camarillo
United States
Destination: KSNA John Wayne-Orange Co
United States
More flights between these airports :: More routes between these airports
Route: LAX
File this flight plan on PilotEdge
Remarks:
Altitude:
(Current/Filed)
550ft
Speed:
(Current/Filed)
110kts
Departed: 22-Feb-21 08:46 PM
Arrived: 22-Feb-21 09:38 PM
Distance/Time
Traveled:
0nm/0:52
Distance/Time
To Go:
Arrived

Flight Plot

Page will automatically refresh every two minutes.

Flight plan parsing failed; only flown route is shown


Map Options




Map Legend


Flown Route
Filed Route
Departure Airport
Arrival Airport
Navaid (VOR, NDB)
Fix

Horizontal Profiles

Position Reports

Time Latitude Longitude Heading Altitude Ground
Speed
22-Feb-21 20:27 34.210645 -119.085546 359 74ft 0kts
22-Feb-21 20:28 34.210645 -119.085546 359 74ft 0kts
22-Feb-21 20:29 34.210645 -119.085546 359 74ft 0kts
22-Feb-21 20:30 34.210645 -119.085546 359 74ft 0kts
22-Feb-21 20:31 34.210645 -119.085546 359 74ft 0kts
22-Feb-21 20:32 34.210645 -119.085546 359 74ft 0kts
22-Feb-21 20:33 34.210645 -119.085546 359 74ft 0kts
22-Feb-21 20:34 34.210645 -119.085546 359 74ft 0kts
22-Feb-21 20:35 34.210645 -119.085546 359 74ft 0kts
22-Feb-21 20:36 34.210645 -119.085546 359 74ft 0kts
22-Feb-21 20:37 34.210645 -119.085546 359 74ft 0kts
22-Feb-21 20:38 34.210645 -119.085546 359 74ft 0kts
22-Feb-21 20:39 34.211384 -119.084613 356 76ft 11kts
22-Feb-21 20:40 34.212765 -119.084482 357 78ft 0kts
22-Feb-21 20:41 34.212765 -119.084482 357 78ft 0kts
22-Feb-21 20:42 34.212765 -119.084482 357 78ft 0kts
22-Feb-21 20:43 34.212765 -119.084482 357 78ft 0kts
22-Feb-21 20:44 34.213704 -119.085156 270 78ft 26kts
22-Feb-21 20:45 34.213231 -119.109442 270 613ft 82kts
22-Feb-21 20:46 34.197888 -119.121401 164 1273ft 85kts
22-Feb-21 20:47 34.194861 -119.095426 83 1841ft 90kts
22-Feb-21 20:48 34.196442 -119.065132 84 2322ft 90kts
22-Feb-21 20:49 34.197871 -119.035171 84 2807ft 89kts
22-Feb-21 20:50 34.199256 -119.005303 84 3295ft 88kts
22-Feb-21 20:51 34.200612 -118.975612 84 3783ft 88kts
22-Feb-21 20:52 34.201695 -118.948793 83 4422ft 70kts
22-Feb-21 20:53 34.202458 -118.925675 83 4898ft 66kts
22-Feb-21 20:54 34.203208 -118.902786 84 5252ft 77kts
22-Feb-21 20:55 34.204528 -118.872347 84 5431ft 106kts
22-Feb-21 20:56 34.206480 -118.833424 84 5438ft 121kts
22-Feb-21 20:57 34.208625 -118.791928 84 5431ft 124kts
22-Feb-21 20:58 34.210777 -118.750339 84 5421ft 124kts
22-Feb-21 20:59 34.212793 -118.710834 85 5396ft 107kts
22-Feb-21 21:00 34.214481 -118.676694 84 5377ft 97kts
22-Feb-21 21:01 34.215996 -118.645103 85 5366ft 92kts
22-Feb-21 21:02 34.214529 -118.613753 91 5360ft 93kts
22-Feb-21 21:03 34.212744 -118.580959 91 5380ft 102kts
22-Feb-21 21:04 34.210812 -118.545281 92 5381ft 110kts
22-Feb-21 21:05 34.185043 -118.531629 181 5355ft 112kts
22-Feb-21 21:06 34.153984 -118.529348 168 5387ft 113kts
22-Feb-21 21:07 34.123081 -118.520565 161 5384ft 115kts
22-Feb-21 21:08 34.092568 -118.508473 158 5378ft 115kts
22-Feb-21 21:09 34.062627 -118.494916 156 5371ft 115kts
22-Feb-21 21:10 34.032835 -118.480613 156 5363ft 115kts
22-Feb-21 21:11 34.003300 -118.466078 155 5352ft 112kts
22-Feb-21 21:12 33.974656 -118.451794 155 5343ft 110kts
22-Feb-21 21:13 33.945773 -118.437314 155 5334ft 109kts
22-Feb-21 21:14 33.918081 -118.422342 150 5329ft 108kts
22-Feb-21 21:15 33.895098 -118.398570 124 5307ft 108kts
22-Feb-21 21:16 33.876777 -118.371171 134 5379ft 100kts
22-Feb-21 21:17 33.855521 -118.348109 137 5372ft 100kts
22-Feb-21 21:18 33.834209 -118.325416 137 5366ft 100kts
22-Feb-21 21:19 33.812573 -118.302391 137 5359ft 101kts
22-Feb-21 21:20 33.791455 -118.279932 137 5353ft 101kts
22-Feb-21 21:21 33.770251 -118.257398 137 5347ft 101kts
22-Feb-21 21:22 33.749068 -118.234861 136 5344ft 104kts
22-Feb-21 21:23 33.727143 -118.209880 133 5347ft 111kts
22-Feb-21 21:24 33.723030 -118.176295 79 5367ft 113kts
22-Feb-21 21:25 33.720872 -118.138180 98 5350ft 115kts
22-Feb-21 21:26 33.724100 -118.101490 81 5344ft 116kts
22-Feb-21 21:27 33.724003 -118.061071 91 4447ft 119kts
22-Feb-21 21:28 33.723609 -118.022332 90 3441ft 110kts
22-Feb-21 21:29 33.723479 -117.986817 90 2428ft 103kts
22-Feb-21 21:30 33.723415 -117.954236 89 1608ft 83kts
22-Feb-21 21:31 33.715428 -117.931832 120 1487ft 88kts
22-Feb-21 21:32 33.698853 -117.904658 125 1439ft 101kts
22-Feb-21 21:33 33.680162 -117.874281 122 1018ft 112kts
22-Feb-21 21:34 33.681787 -117.844809 36 1167ft 104kts
22-Feb-21 21:35 33.695881 -117.852519 260 575ft 77kts
22-Feb-21 21:36 33.680069 -117.866061 208 63ft 55kts
22-Feb-21 21:37 33.678076 -117.868314 300 60ft 0kts
22-Feb-21 21:38 33.676979 -117.869550 210 60ft 20kts
22-Feb-21 21:45 34.210645 -119.085546 359 74ft 0kts
22-Feb-21 21:46 34.210645 -119.085546 359 74ft 0kts
22-Feb-21 21:47 34.210645 -119.085546 359 74ft 0kts
22-Feb-21 21:48 34.210955 -119.085113 88 75ft 11kts
22-Feb-21 21:49 34.212720 -119.084420 346 78ft 0kts
22-Feb-21 21:50 34.212720 -119.084420 346 78ft 0kts
22-Feb-21 21:51 34.212720 -119.084420 346 78ft 0kts
22-Feb-21 21:52 34.213703 -119.091252 268 120ft 78kts

Navigation Log

Ident Type
Flight plan parsing failed, navigation log unavailable